sensor_id;sensor_type;location;lat;lon;timestamp;temperature;humidity
47310;DHT22;33046;52.270;6.832;2024-02-21T00:01:15;10.90;99.90
47310;DHT22;33046;52.270;6.832;2024-02-21T00:03:23;10.90;99.90
47310;DHT22;33046;52.270;6.832;2024-02-21T00:05:30;10.80;99.90
47310;DHT22;33046;52.270;6.832;2024-02-21T00:07:37;10.90;99.90
47310;DHT22;33046;52.270;6.832;2024-02-21T00:09:44;10.90;99.90
47310;DHT22;33046;52.270;6.832;2024-02-21T00:11:50;10.90;99.90
47310;DHT22;33046;52.270;6.832;2024-02-21T00:13:57;10.90;99.90
47310;DHT22;33046;52.270;6.832;2024-02-21T00:16:04;10.80;99.90
47310;DHT22;33046;52.270;6.832;2024-02-21T00:18:11;10.90;99.90
47310;DHT22;33046;52.270;6.832;2024-02-21T00:20:20;10.90;99.90
47310;DHT22;33046;52.270;6.832;2024-02-21T00:22:27;10.90;99.90
47310;DHT22;33046;52.270;6.832;2024-02-21T00:24:33;10.90;99.90
47310;DHT22;33046;52.270;6.832;2024-02-21T00:26:40;10.90;99.90
47310;DHT22;33046;52.270;6.832;2024-02-21T00:28:47;10.90;99.90
47310;DHT22;33046;52.270;6.832;2024-02-21T00:30:54;10.90;99.90
47310;DHT22;33046;52.270;6.832;2024-02-21T00:33:01;10.80;99.90
47310;DHT22;33046;52.270;6.832;2024-02-21T00:35:08;10.80;99.90
47310;DHT22;33046;52.270;6.832;2024-02-21T00:37:16;10.90;99.90
47310;DHT22;33046;52.270;6.832;2024-02-21T00:39:23;10.90;99.90
47310;DHT22;33046;52.270;6.832;2024-02-21T00:41:30;10.80;99.90
47310;DHT22;33046;52.270;6.832;2024-02-21T00:43:37;10.80;99.90
47310;DHT22;33046;52.270;6.832;2024-02-21T00:45:44;10.80;99.90
47310;DHT22;33046;52.270;6.832;2024-02-21T00:47:51;10.90;99.90
47310;DHT22;33046;52.270;6.832;2024-02-21T00:49:57;10.80;99.90
47310;DHT22;33046;52.270;6.832;2024-02-21T00:52:04;10.90;99.90
47310;DHT22;33046;52.270;6.832;2024-02-21T00:54:13;10.90;99.90
47310;DHT22;33046;52.270;6.832;2024-02-21T00:56:19;10.90;99.90
47310;DHT22;33046;52.270;6.832;2024-02-21T00:58:26;10.80;99.90
47310;DHT22;33046;52.270;6.832;2024-02-21T01:00:33;10.90;99.90
47310;DHT22;33046;52.270;6.832;2024-02-21T01:02:40;10.90;99.90
47310;DHT22;33046;52.270;6.832;2024-02-21T01:04:47;10.90;99.90
47310;DHT22;33046;52.270;6.832;2024-02-21T01:06:54;10.90;99.90
47310;DHT22;33046;52.270;6.832;2024-02-21T01:09:00;10.90;99.90
47310;DHT22;33046;52.270;6.832;2024-02-21T01:11:09;10.90;99.90
47310;DHT22;33046;52.270;6.832;2024-02-21T01:13:16;10.80;99.90
47310;DHT22;33046;52.270;6.832;2024-02-21T01:15:22;10.90;99.90
47310;DHT22;33046;52.270;6.832;2024-02-21T01:17:29;10.80;99.90
47310;DHT22;33046;52.270;6.832;2024-02-21T01:19:36;10.90;99.90
47310;DHT22;33046;52.270;6.832;2024-02-21T01:21:43;10.90;99.90
47310;DHT22;33046;52.270;6.832;2024-02-21T01:23:50;10.90;99.90
47310;DHT22;33046;52.270;6.832;2024-02-21T01:25:56;10.90;99.90
47310;DHT22;33046;52.270;6.832;2024-02-21T01:28:05;10.80;99.90
47310;DHT22;33046;52.270;6.832;2024-02-21T01:30:12;10.90;99.90
47310;DHT22;33046;52.270;6.832;2024-02-21T01:32:19;10.90;99.90
47310;DHT22;33046;52.270;6.832;2024-02-21T01:34:26;10.90;99.90
47310;DHT22;33046;52.270;6.832;2024-02-21T01:36:33;10.90;99.90
47310;DHT22;33046;52.270;6.832;2024-02-21T01:38:40;10.90;99.90
47310;DHT22;33046;52.270;6.832;2024-02-21T01:40:47;10.90;99.90
47310;DHT22;33046;52.270;6.832;2024-02-21T01:42:55;10.90;99.90
47310;DHT22;33046;52.270;6.832;2024-02-21T01:45:04;10.90;99.90
47310;DHT22;33046;52.270;6.832;2024-02-21T01:47:12;10.90;99.90
47310;DHT22;33046;52.270;6.832;2024-02-21T01:49:20;10.90;99.90
47310;DHT22;33046;52.270;6.832;2024-02-21T01:51:28;10.90;99.90
47310;DHT22;33046;52.270;6.832;2024-02-21T01:53:38;10.90;99.90
47310;DHT22;33046;52.270;6.832;2024-02-21T01:55:48;10.90;99.90
47310;DHT22;33046;52.270;6.832;2024-02-21T01:57:55;10.90;99.90
47310;DHT22;33046;52.270;6.832;2024-02-21T02:00:02;10.90;99.90
47310;DHT22;33046;52.270;6.832;2024-02-21T02:02:18;10.90;99.90
47310;DHT22;33046;52.270;6.832;2024-02-21T02:04:25;10.90;99.90
47310;DHT22;33046;52.270;6.832;2024-02-21T02:06:32;10.90;99.90
47310;DHT22;33046;52.270;6.832;2024-02-21T02:08:39;10.80;99.90
47310;DHT22;33046;52.270;6.832;2024-02-21T02:10:46;10.90;99.90
47310;DHT22;33046;52.270;6.832;2024-02-21T02:12:53;10.90;99.90
47310;DHT22;33046;52.270;6.832;2024-02-21T02:15:00;10.90;99.90
47310;DHT22;33046;52.270;6.832;2024-02-21T02:17:06;10.90;99.90
47310;DHT22;33046;52.270;6.832;2024-02-21T02:19:15;10.90;99.90
47310;DHT22;33046;52.270;6.832;2024-02-21T02:21:27;10.90;99.90
47310;DHT22;33046;52.270;6.832;2024-02-21T02:23:36;10.80;99.90
47310;DHT22;33046;52.270;6.832;2024-02-21T02:25:43;10.80;99.90
47310;DHT22;33046;52.270;6.832;2024-02-21T02:27:53;10.90;99.90
47310;DHT22;33046;52.270;6.832;2024-02-21T02:30:00;10.80;99.90
47310;DHT22;33046;52.270;6.832;2024-02-21T02:32:06;10.80;99.90
47310;DHT22;33046;52.270;6.832;2024-02-21T02:34:13;10.90;99.90
47310;DHT22;33046;52.270;6.832;2024-02-21T02:36:20;10.90;99.90
47310;DHT22;33046;52.270;6.832;2024-02-21T02:38:27;10.90;99.90
47310;DHT22;33046;52.270;6.832;2024-02-21T02:40:36;10.90;99.90
47310;DHT22;33046;52.270;6.832;2024-02-21T02:42:43;10.90;99.90
47310;DHT22;33046;52.270;6.832;2024-02-21T02:44:49;10.90;99.90
47310;DHT22;33046;52.270;6.832;2024-02-21T02:46:56;10.80;99.90
47310;DHT22;33046;52.270;6.832;2024-02-21T02:49:05;10.80;99.90
47310;DHT22;33046;52.270;6.832;2024-02-21T02:51:12;10.90;99.90
47310;DHT22;33046;52.270;6.832;2024-02-21T02:53:19;10.80;99.90
47310;DHT22;33046;52.270;6.832;2024-02-21T02:55:26;10.90;99.90
47310;DHT22;33046;52.270;6.832;2024-02-21T02:57:34;10.80;99.90
47310;DHT22;33046;52.270;6.832;2024-02-21T02:59:41;10.80;99.90
47310;DHT22;33046;52.270;6.832;2024-02-21T03:01:48;10.80;99.90
47310;DHT22;33046;52.270;6.832;2024-02-21T03:03:55;10.80;99.90
47310;DHT22;33046;52.270;6.832;2024-02-21T03:06:02;10.90;99.90
47310;DHT22;33046;52.270;6.832;2024-02-21T03:08:09;10.90;99.90
47310;DHT22;33046;52.270;6.832;2024-02-21T03:10:16;10.80;99.90
47310;DHT22;33046;52.270;6.832;2024-02-21T03:12:22;10.90;99.90
47310;DHT22;33046;52.270;6.832;2024-02-21T03:14:31;10.90;99.90
47310;DHT22;33046;52.270;6.832;2024-02-21T03:16:38;10.80;99.90
47310;DHT22;33046;52.270;6.832;2024-02-21T03:18:44;10.80;99.90
47310;DHT22;33046;52.270;6.832;2024-02-21T03:20:51;10.80;99.90
47310;DHT22;33046;52.270;6.832;2024-02-21T03:22:58;10.80;99.90
47310;DHT22;33046;52.270;6.832;2024-02-21T03:25:06;10.80;99.90
47310;DHT22;33046;52.270;6.832;2024-02-21T03:27:13;10.80;99.90
47310;DHT22;33046;52.270;6.832;2024-02-21T03:29:21;10.90;99.90
47310;DHT22;33046;52.270;6.832;2024-02-21T03:31:29;10.90;99.90
47310;DHT22;33046;52.270;6.832;2024-02-21T03:33:36;10.80;99.90
47310;DHT22;33046;52.270;6.832;2024-02-21T03:35:42;10.80;99.90
47310;DHT22;33046;52.270;6.832;2024-02-21T03:37:49;10.80;99.90
47310;DHT22;33046;52.270;6.832;2024-02-21T03:39:56;10.90;99.90
47310;DHT22;33046;52.270;6.832;2024-02-21T03:42:04;10.80;99.90
47310;DHT22;33046;52.270;6.832;2024-02-21T03:44:10;10.90;99.90
47310;DHT22;33046;52.270;6.832;2024-02-21T03:46:17;10.80;99.90
47310;DHT22;33046;52.270;6.832;2024-02-21T03:48:25;10.80;99.90
47310;DHT22;33046;52.270;6.832;2024-02-21T03:50:32;10.90;99.90
47310;DHT22;33046;52.270;6.832;2024-02-21T03:52:39;10.90;99.90
47310;DHT22;33046;52.270;6.832;2024-02-21T03:54:46;10.80;99.90
47310;DHT22;33046;52.270;6.832;2024-02-21T03:56:53;10.90;99.90
47310;DHT22;33046;52.270;6.832;2024-02-21T03:59:00;10.90;99.90
47310;DHT22;33046;52.270;6.832;2024-02-21T04:01:06;10.90;99.90
47310;DHT22;33046;52.270;6.832;2024-02-21T04:03:13;10.80;99.90
47310;DHT22;33046;52.270;6.832;2024-02-21T04:05:22;10.80;99.90
47310;DHT22;33046;52.270;6.832;2024-02-21T04:07:29;10.90;99.90
47310;DHT22;33046;52.270;6.832;2024-02-21T04:09:36;10.80;99.90
47310;DHT22;33046;52.270;6.832;2024-02-21T04:11:42;10.80;99.90
47310;DHT22;33046;52.270;6.832;2024-02-21T04:13:49;10.80;99.90
47310;DHT22;33046;52.270;6.832;2024-02-21T04:15:56;10.80;99.90
47310;DHT22;33046;52.270;6.832;2024-02-21T04:18:03;10.80;99.90
47310;DHT22;33046;52.270;6.832;2024-02-21T04:20:14;10.80;99.90
47310;DHT22;33046;52.270;6.832;2024-02-21T04:22:23;10.80;99.90
47310;DHT22;33046;52.270;6.832;2024-02-21T04:24:29;10.80;99.90
47310;DHT22;33046;52.270;6.832;2024-02-21T04:26:36;10.80;99.90
47310;DHT22;33046;52.270;6.832;2024-02-21T04:28:45;10.80;99.90
47310;DHT22;33046;52.270;6.832;2024-02-21T04:30:52;10.80;99.90
47310;DHT22;33046;52.270;6.832;2024-02-21T04:32:59;10.80;99.90
47310;DHT22;33046;52.270;6.832;2024-02-21T04:35:06;10.80;99.90
47310;DHT22;33046;52.270;6.832;2024-02-21T04:37:13;10.80;99.90
47310;DHT22;33046;52.270;6.832;2024-02-21T04:39:21;10.80;99.90
47310;DHT22;33046;52.270;6.832;2024-02-21T04:41:28;10.80;99.90
47310;DHT22;33046;52.270;6.832;2024-02-21T04:43:35;10.80;99.90
47310;DHT22;33046;52.270;6.832;2024-02-21T04:45:42;10.80;99.90
47310;DHT22;33046;52.270;6.832;2024-02-21T04:47:49;10.80;99.90
47310;DHT22;33046;52.270;6.832;2024-02-21T04:49:56;10.80;99.90
47310;DHT22;33046;52.270;6.832;2024-02-21T04:52:03;10.80;99.90
47310;DHT22;33046;52.270;6.832;2024-02-21T04:54:10;10.80;99.90
47310;DHT22;33046;52.270;6.832;2024-02-21T04:56:18;10.80;99.90
47310;DHT22;33046;52.270;6.832;2024-02-21T04:58:25;10.80;99.90
47310;DHT22;33046;52.270;6.832;2024-02-21T05:00:32;10.80;99.90
47310;DHT22;33046;52.270;6.832;2024-02-21T05:02:39;10.80;99.90
47310;DHT22;33046;52.270;6.832;2024-02-21T05:04:45;10.80;99.90
47310;DHT22;33046;52.270;6.832;2024-02-21T05:06:52;10.80;99.90
47310;DHT22;33046;52.270;6.832;2024-02-21T05:08:59;10.80;99.90
47310;DHT22;33046;52.270;6.832;2024-02-21T05:11:06;10.80;99.90
47310;DHT22;33046;52.270;6.832;2024-02-21T05:13:14;10.80;99.90
47310;DHT22;33046;52.270;6.832;2024-02-21T05:15:21;10.80;99.90
47310;DHT22;33046;52.270;6.832;2024-02-21T05:17:30;10.80;99.90
47310;DHT22;33046;52.270;6.832;2024-02-21T05:19:37;10.70;99.90
47310;DHT22;33046;52.270;6.832;2024-02-21T05:21:44;10.80;99.90
47310;DHT22;33046;52.270;6.832;2024-02-21T05:23:51;10.80;99.90
47310;DHT22;33046;52.270;6.832;2024-02-21T05:25:58;10.80;99.90
47310;DHT22;33046;52.270;6.832;2024-02-21T05:28:05;10.80;99.90
47310;DHT22;33046;52.270;6.832;2024-02-21T05:30:13;10.80;99.90
47310;DHT22;33046;52.270;6.832;2024-02-21T05:32:20;10.90;99.90
47310;DHT22;33046;52.270;6.832;2024-02-21T05:34:27;10.80;99.90
47310;DHT22;33046;52.270;6.832;2024-02-21T05:36:34;10.80;99.90
47310;DHT22;33046;52.270;6.832;2024-02-21T05:38:41;10.80;99.90
47310;DHT22;33046;52.270;6.832;2024-02-21T05:40:47;10.80;99.90
47310;DHT22;33046;52.270;6.832;2024-02-21T05:42:54;10.80;99.90
47310;DHT22;33046;52.270;6.832;2024-02-21T05:45:01;10.80;99.90
47310;DHT22;33046;52.270;6.832;2024-02-21T05:47:09;10.80;99.90
47310;DHT22;33046;52.270;6.832;2024-02-21T05:49:16;10.80;99.90
47310;DHT22;33046;52.270;6.832;2024-02-21T05:51:23;10.90;99.90
47310;DHT22;33046;52.270;6.832;2024-02-21T05:53:30;10.80;99.90
47310;DHT22;33046;52.270;6.832;2024-02-21T05:55:38;10.80;99.90
47310;DHT22;33046;52.270;6.832;2024-02-21T05:57:45;10.80;99.90
47310;DHT22;33046;52.270;6.832;2024-02-21T05:59:52;10.90;99.90
47310;DHT22;33046;52.270;6.832;2024-02-21T06:01:59;10.80;99.90
47310;DHT22;33046;52.270;6.832;2024-02-21T06:04:07;10.80;99.90
47310;DHT22;33046;52.270;6.832;2024-02-21T06:06:14;10.80;99.90
47310;DHT22;33046;52.270;6.832;2024-02-21T06:08:21;10.80;99.90
47310;DHT22;33046;52.270;6.832;2024-02-21T06:10:28;10.80;99.90
47310;DHT22;33046;52.270;6.832;2024-02-21T06:12:35;10.80;99.90
47310;DHT22;33046;52.270;6.832;2024-02-21T06:14:41;10.80;99.90
47310;DHT22;33046;52.270;6.832;2024-02-21T06:16:48;10.80;99.90
47310;DHT22;33046;52.270;6.832;2024-02-21T06:18:55;10.90;99.90
47310;DHT22;33046;52.270;6.832;2024-02-21T06:21:03;10.80;99.90
47310;DHT22;33046;52.270;6.832;2024-02-21T06:23:11;10.80;99.90
47310;DHT22;33046;52.270;6.832;2024-02-21T06:25:18;10.80;99.90
47310;DHT22;33046;52.270;6.832;2024-02-21T06:27:25;10.80;99.90
47310;DHT22;33046;52.270;6.832;2024-02-21T06:29:31;10.80;99.90
47310;DHT22;33046;52.270;6.832;2024-02-21T06:31:38;10.80;99.90
47310;DHT22;33046;52.270;6.832;2024-02-21T06:33:45;10.80;99.90
47310;DHT22;33046;52.270;6.832;2024-02-21T06:35:52;10.80;99.90
47310;DHT22;33046;52.270;6.832;2024-02-21T06:38:00;10.80;99.90
47310;DHT22;33046;52.270;6.832;2024-02-21T06:40:08;10.80;99.90
47310;DHT22;33046;52.270;6.832;2024-02-21T06:42:14;10.80;99.90
47310;DHT22;33046;52.270;6.832;2024-02-21T06:44:22;10.80;99.90
47310;DHT22;33046;52.270;6.832;2024-02-21T06:46:29;10.80;99.90
47310;DHT22;33046;52.270;6.832;2024-02-21T06:48:36;10.80;99.90
47310;DHT22;33046;52.270;6.832;2024-02-21T06:50:43;10.80;99.90
47310;DHT22;33046;52.270;6.832;2024-02-21T06:52:50;10.80;99.90
47310;DHT22;33046;52.270;6.832;2024-02-21T06:54:58;10.80;99.90
47310;DHT22;33046;52.270;6.832;2024-02-21T06:57:05;10.80;99.90
47310;DHT22;33046;52.270;6.832;2024-02-21T06:59:12;10.90;99.90
47310;DHT22;33046;52.270;6.832;2024-02-21T07:01:19;10.80;99.90
47310;DHT22;33046;52.270;6.832;2024-02-21T07:03:26;10.80;99.90
47310;DHT22;33046;52.270;6.832;2024-02-21T07:05:32;10.80;99.90
47310;DHT22;33046;52.270;6.832;2024-02-21T07:07:39;10.80;99.90
47310;DHT22;33046;52.270;6.832;2024-02-21T07:09:46;10.80;99.90
47310;DHT22;33046;52.270;6.832;2024-02-21T07:11:54;10.80;99.90
47310;DHT22;33046;52.270;6.832;2024-02-21T07:14:01;10.80;99.90
47310;DHT22;33046;52.270;6.832;2024-02-21T07:16:08;10.80;99.90
47310;DHT22;33046;52.270;6.832;2024-02-21T07:18:15;10.80;99.90
47310;DHT22;33046;52.270;6.832;2024-02-21T07:20:22;10.80;99.90
47310;DHT22;33046;52.270;6.832;2024-02-21T07:22:29;10.90;99.90
47310;DHT22;33046;52.270;6.832;2024-02-21T07:24:36;10.80;99.90
47310;DHT22;33046;52.270;6.832;2024-02-21T07:26:44;10.80;99.90
47310;DHT22;33046;52.270;6.832;2024-02-21T07:28:52;10.80;99.90
47310;DHT22;33046;52.270;6.832;2024-02-21T07:30:59;10.80;99.90
47310;DHT22;33046;52.270;6.832;2024-02-21T07:33:06;10.90;99.90
47310;DHT22;33046;52.270;6.832;2024-02-21T07:35:13;10.80;99.90
47310;DHT22;33046;52.270;6.832;2024-02-21T07:37:20;10.90;99.90
47310;DHT22;33046;52.270;6.832;2024-02-21T07:39:27;10.90;99.90
47310;DHT22;33046;52.270;6.832;2024-02-21T07:41:34;10.90;99.90
47310;DHT22;33046;52.270;6.832;2024-02-21T07:43:41;10.90;99.90
47310;DHT22;33046;52.270;6.832;2024-02-21T07:45:49;10.90;99.90
47310;DHT22;33046;52.270;6.832;2024-02-21T07:47:56;10.90;99.90
47310;DHT22;33046;52.270;6.832;2024-02-21T07:50:03;10.90;99.90
47310;DHT22;33046;52.270;6.832;2024-02-21T07:52:10;10.90;99.90
47310;DHT22;33046;52.270;6.832;2024-02-21T07:54:17;10.90;99.90
47310;DHT22;33046;52.270;6.832;2024-02-21T07:56:27;11.00;99.90
47310;DHT22;33046;52.270;6.832;2024-02-21T07:58:34;11.00;99.90
47310;DHT22;33046;52.270;6.832;2024-02-21T08:00:41;11.00;99.90
47310;DHT22;33046;52.270;6.832;2024-02-21T08:02:49;11.00;99.90
47310;DHT22;33046;52.270;6.832;2024-02-21T08:04:56;11.00;99.90
47310;DHT22;33046;52.270;6.832;2024-02-21T08:07:03;11.00;99.90
47310;DHT22;33046;52.270;6.832;2024-02-21T08:09:10;11.00;99.90
47310;DHT22;33046;52.270;6.832;2024-02-21T08:11:17;11.00;99.90
47310;DHT22;33046;52.270;6.832;2024-02-21T08:13:24;11.00;99.90
47310;DHT22;33046;52.270;6.832;2024-02-21T08:15:30;11.00;99.90
47310;DHT22;33046;52.270;6.832;2024-02-21T08:17:37;11.10;99.90
47310;DHT22;33046;52.270;6.832;2024-02-21T08:19:46;11.10;99.90
47310;DHT22;33046;52.270;6.832;2024-02-21T08:21:52;11.10;99.90
47310;DHT22;33046;52.270;6.832;2024-02-21T08:23:59;11.20;99.90
47310;DHT22;33046;52.270;6.832;2024-02-21T08:26:06;11.20;99.90
47310;DHT22;33046;52.270;6.832;2024-02-21T08:28:14;11.20;99.90
47310;DHT22;33046;52.270;6.832;2024-02-21T08:30:21;11.20;99.90
47310;DHT22;33046;52.270;6.832;2024-02-21T08:32:29;11.20;99.90
47310;DHT22;33046;52.270;6.832;2024-02-21T08:34:35;11.20;99.90
47310;DHT22;33046;52.270;6.832;2024-02-21T08:36:44;11.20;99.90
47310;DHT22;33046;52.270;6.832;2024-02-21T08:38:50;11.30;99.90
47310;DHT22;33046;52.270;6.832;2024-02-21T08:40:57;11.20;99.90
47310;DHT22;33046;52.270;6.832;2024-02-21T08:43:04;11.20;99.90
47310;DHT22;33046;52.270;6.832;2024-02-21T08:45:11;11.30;99.90
47310;DHT22;33046;52.270;6.832;2024-02-21T08:47:18;11.30;99.90
47310;DHT22;33046;52.270;6.832;2024-02-21T08:49:25;11.30;99.90
47310;DHT22;33046;52.270;6.832;2024-02-21T08:51:32;11.30;99.90
47310;DHT22;33046;52.270;6.832;2024-02-21T08:53:40;11.30;99.90
47310;DHT22;33046;52.270;6.832;2024-02-21T08:55:47;11.40;99.90
47310;DHT22;33046;52.270;6.832;2024-02-21T08:57:54;11.40;99.90
47310;DHT22;33046;52.270;6.832;2024-02-21T09:00:01;11.40;99.90
47310;DHT22;33046;52.270;6.832;2024-02-21T09:02:07;11.40;99.90
47310;DHT22;33046;52.270;6.832;2024-02-21T09:04:14;11.40;99.90
47310;DHT22;33046;52.270;6.832;2024-02-21T09:06:21;11.50;99.90
47310;DHT22;33046;52.270;6.832;2024-02-21T09:08:28;11.50;99.90
47310;DHT22;33046;52.270;6.832;2024-02-21T09:10:36;11.50;99.90
47310;DHT22;33046;52.270;6.832;2024-02-21T09:12:43;11.50;99.90
47310;DHT22;33046;52.270;6.832;2024-02-21T09:14:50;11.50;99.90
47310;DHT22;33046;52.270;6.832;2024-02-21T09:16:57;11.60;99.90
47310;DHT22;33046;52.270;6.832;2024-02-21T09:19:04;11.60;99.90
47310;DHT22;33046;52.270;6.832;2024-02-21T09:21:11;11.60;99.90
47310;DHT22;33046;52.270;6.832;2024-02-21T09:23:17;11.60;99.90
47310;DHT22;33046;52.270;6.832;2024-02-21T09:25:24;11.70;99.90
47310;DHT22;33046;52.270;6.832;2024-02-21T09:27:33;11.70;99.90
47310;DHT22;33046;52.270;6.832;2024-02-21T09:29:40;11.70;99.90
47310;DHT22;33046;52.270;6.832;2024-02-21T09:31:46;11.70;99.90
47310;DHT22;33046;52.270;6.832;2024-02-21T09:33:53;11.70;99.90
47310;DHT22;33046;52.270;6.832;2024-02-21T09:36:01;11.70;99.90
47310;DHT22;33046;52.270;6.832;2024-02-21T09:38:07;11.70;99.90
47310;DHT22;33046;52.270;6.832;2024-02-21T09:40:16;11.70;99.90
47310;DHT22;33046;52.270;6.832;2024-02-21T09:42:27;11.70;99.90
47310;DHT22;33046;52.270;6.832;2024-02-21T09:44:38;11.70;99.90
47310;DHT22;33046;52.270;6.832;2024-02-21T09:46:52;11.80;99.90
47310;DHT22;33046;52.270;6.832;2024-02-21T09:49:10;11.80;99.90
47310;DHT22;33046;52.270;6.832;2024-02-21T09:51:21;11.80;99.90
47310;DHT22;33046;52.270;6.832;2024-02-21T09:53:28;11.80;99.90
47310;DHT22;33046;52.270;6.832;2024-02-21T09:55:37;11.80;99.90
47310;DHT22;33046;52.270;6.832;2024-02-21T09:57:45;11.90;99.90
47310;DHT22;33046;52.270;6.832;2024-02-21T09:59:53;11.90;99.90
47310;DHT22;33046;52.270;6.832;2024-02-21T10:02:02;11.90;99.90
47310;DHT22;33046;52.270;6.832;2024-02-21T10:04:09;11.90;99.90
47310;DHT22;33046;52.270;6.832;2024-02-21T10:06:16;11.90;99.90
47310;DHT22;33046;52.270;6.832;2024-02-21T10:08:23;11.80;99.90
47310;DHT22;33046;52.270;6.832;2024-02-21T10:10:29;11.90;99.90
47310;DHT22;33046;52.270;6.832;2024-02-21T10:12:36;11.90;99.90
47310;DHT22;33046;52.270;6.832;2024-02-21T10:14:43;11.90;99.90
47310;DHT22;33046;52.270;6.832;2024-02-21T10:16:58;12.00;99.90
47310;DHT22;33046;52.270;6.832;2024-02-21T10:19:04;12.00;99.90
47310;DHT22;33046;52.270;6.832;2024-02-21T10:21:11;12.00;99.90
47310;DHT22;33046;52.270;6.832;2024-02-21T10:23:18;12.00;99.90
47310;DHT22;33046;52.270;6.832;2024-02-21T10:25:25;12.10;99.90
47310;DHT22;33046;52.270;6.832;2024-02-21T10:27:32;12.10;99.90
47310;DHT22;33046;52.270;6.832;2024-02-21T10:29:39;12.10;99.90
47310;DHT22;33046;52.270;6.832;2024-02-21T10:31:46;12.10;99.90
47310;DHT22;33046;52.270;6.832;2024-02-21T10:33:56;12.20;99.90
47310;DHT22;33046;52.270;6.832;2024-02-21T10:36:07;12.20;99.90
47310;DHT22;33046;52.270;6.832;2024-02-21T10:38:14;12.30;99.90
47310;DHT22;33046;52.270;6.832;2024-02-21T10:40:21;12.30;99.90
47310;DHT22;33046;52.270;6.832;2024-02-21T10:42:29;12.30;99.90
47310;DHT22;33046;52.270;6.832;2024-02-21T10:44:37;12.30;99.90
47310;DHT22;33046;52.270;6.832;2024-02-21T10:46:44;12.30;99.90
47310;DHT22;33046;52.270;6.832;2024-02-21T10:49:03;12.40;99.90
47310;DHT22;33046;52.270;6.832;2024-02-21T10:51:15;12.40;99.90
47310;DHT22;33046;52.270;6.832;2024-02-21T10:53:29;12.40;99.90
47310;DHT22;33046;52.270;6.832;2024-02-21T10:55:50;12.40;99.90
47310;DHT22;33046;52.270;6.832;2024-02-21T10:57:59;12.40;99.90
47310;DHT22;33046;52.270;6.832;2024-02-21T11:00:07;12.40;99.90
47310;DHT22;33046;52.270;6.832;2024-02-21T11:02:15;12.50;99.90
47310;DHT22;33046;52.270;6.832;2024-02-21T11:04:24;12.50;99.90
47310;DHT22;33046;52.270;6.832;2024-02-21T11:06:33;12.50;99.90
47310;DHT22;33046;52.270;6.832;2024-02-21T11:08:40;12.50;99.90
47310;DHT22;33046;52.270;6.832;2024-02-21T11:10:47;12.50;99.90
47310;DHT22;33046;52.270;6.832;2024-02-21T11:13:05;12.50;99.90
47310;DHT22;33046;52.270;6.832;2024-02-21T11:15:12;12.60;99.90
47310;DHT22;33046;52.270;6.832;2024-02-21T11:17:20;12.60;99.90
47310;DHT22;33046;52.270;6.832;2024-02-21T11:19:29;12.60;99.90
47310;DHT22;33046;52.270;6.832;2024-02-21T11:21:36;12.60;99.90
47310;DHT22;33046;52.270;6.832;2024-02-21T11:23:43;12.60;99.90
47310;DHT22;33046;52.270;6.832;2024-02-21T11:25:50;12.60;99.90
47310;DHT22;33046;52.270;6.832;2024-02-21T11:28:01;12.60;99.90
47310;DHT22;33046;52.270;6.832;2024-02-21T11:30:12;12.60;99.90
47310;DHT22;33046;52.270;6.832;2024-02-21T11:32:20;12.60;99.90
47310;DHT22;33046;52.270;6.832;2024-02-21T11:34:28;12.60;99.90
47310;DHT22;33046;52.270;6.832;2024-02-21T11:36:35;12.50;99.90
47310;DHT22;33046;52.270;6.832;2024-02-21T11:38:42;12.50;99.90
47310;DHT22;33046;52.270;6.832;2024-02-21T11:40:49;12.50;99.90
47310;DHT22;33046;52.270;6.832;2024-02-21T11:42:59;12.50;99.90
47310;DHT22;33046;52.270;6.832;2024-02-21T11:45:06;12.40;99.90
47310;DHT22;33046;52.270;6.832;2024-02-21T11:47:14;12.40;99.90
47310;DHT22;33046;52.270;6.832;2024-02-21T11:49:21;12.40;99.90
47310;DHT22;33046;52.270;6.832;2024-02-21T11:51:29;12.40;99.90
47310;DHT22;33046;52.270;6.832;2024-02-21T11:53:37;12.40;99.90
47310;DHT22;33046;52.270;6.832;2024-02-21T11:55:46;12.30;99.90
47310;DHT22;33046;52.270;6.832;2024-02-21T11:57:52;12.30;99.90
47310;DHT22;33046;52.270;6.832;2024-02-21T11:59:59;12.30;99.90
47310;DHT22;33046;52.270;6.832;2024-02-21T12:02:16;12.30;99.90
47310;DHT22;33046;52.270;6.832;2024-02-21T12:04:23;12.30;99.90
47310;DHT22;33046;52.270;6.832;2024-02-21T12:06:33;12.30;99.90
47310;DHT22;33046;52.270;6.832;2024-02-21T12:08:41;12.30;99.90
47310;DHT22;33046;52.270;6.832;2024-02-21T12:10:49;12.30;99.90
47310;DHT22;33046;52.270;6.832;2024-02-21T12:13:05;12.30;99.90
47310;DHT22;33046;52.270;6.832;2024-02-21T12:15:12;12.30;99.90
47310;DHT22;33046;52.270;6.832;2024-02-21T12:17:19;12.30;99.90
47310;DHT22;33046;52.270;6.832;2024-02-21T12:19:29;12.30;99.90
47310;DHT22;33046;52.270;6.832;2024-02-21T12:21:37;12.30;99.90
47310;DHT22;33046;52.270;6.832;2024-02-21T12:23:44;12.30;99.90
47310;DHT22;33046;52.270;6.832;2024-02-21T12:25:51;12.30;99.90
47310;DHT22;33046;52.270;6.832;2024-02-21T12:27:58;12.30;99.90
47310;DHT22;33046;52.270;6.832;2024-02-21T12:30:05;12.30;99.90
47310;DHT22;33046;52.270;6.832;2024-02-21T12:32:12;12.30;99.90
47310;DHT22;33046;52.270;6.832;2024-02-21T12:34:19;12.30;99.90
47310;DHT22;33046;52.270;6.832;2024-02-21T12:36:30;12.40;99.90
47310;DHT22;33046;52.270;6.832;2024-02-21T12:38:38;12.40;99.90
47310;DHT22;33046;52.270;6.832;2024-02-21T12:40:45;12.40;99.90
47310;DHT22;33046;52.270;6.832;2024-02-21T12:42:52;12.30;99.90
47310;DHT22;33046;52.270;6.832;2024-02-21T12:44:59;12.30;99.90
47310;DHT22;33046;52.270;6.832;2024-02-21T12:47:06;12.30;99.90
47310;DHT22;33046;52.270;6.832;2024-02-21T12:49:13;12.30;99.90
47310;DHT22;33046;52.270;6.832;2024-02-21T12:51:20;12.30;99.90
47310;DHT22;33046;52.270;6.832;2024-02-21T12:53:27;12.30;99.90
47310;DHT22;33046;52.270;6.832;2024-02-21T12:55:35;12.20;99.90
47310;DHT22;33046;52.270;6.832;2024-02-21T12:57:42;12.30;99.90
47310;DHT22;33046;52.270;6.832;2024-02-21T12:59:49;12.20;99.90
47310;DHT22;33046;52.270;6.832;2024-02-21T13:01:56;12.20;99.90
47310;DHT22;33046;52.270;6.832;2024-02-21T13:04:03;12.20;99.90
47310;DHT22;33046;52.270;6.832;2024-02-21T13:06:10;12.20;99.90
47310;DHT22;33046;52.270;6.832;2024-02-21T13:08:17;12.20;99.90
47310;DHT22;33046;52.270;6.832;2024-02-21T13:10:24;12.20;99.90
47310;DHT22;33046;52.270;6.832;2024-02-21T13:12:32;12.20;99.90
47310;DHT22;33046;52.270;6.832;2024-02-21T13:14:39;12.20;99.90
47310;DHT22;33046;52.270;6.832;2024-02-21T13:16:46;12.20;99.90
47310;DHT22;33046;52.270;6.832;2024-02-21T13:18:53;12.20;99.90
47310;DHT22;33046;52.270;6.832;2024-02-21T13:20:59;12.20;99.90
47310;DHT22;33046;52.270;6.832;2024-02-21T13:23:06;12.20;99.90
47310;DHT22;33046;52.270;6.832;2024-02-21T13:25:13;12.30;99.90